Time;durP1;ratioP1;P1;durP2;ratioP2;P2;SDS_P1;SDS_P2;PMS_P1;PMS_P2;Temp;Humidity;BMP_temperature;BMP_pressure;BME280_temperature;BME280_humidity;BME280_pressure;Samples;Min_cycle;Max_cycle;Signal;HPM_P1;HPM_P2
2022/06/08 00:00:24;;;;;;;0.40;0.40;;;13.80;99.90;;;;;;5031597;28;20207;-77
2022/06/08 00:02:59;;;;;;;0.50;0.50;;;13.80;99.90;;;;;;5032297;28;20246;-77
2022/06/08 00:05:25;;;;;;;0.40;0.40;;;13.70;99.90;;;;;;5031948;28;20205;-77
2022/06/08 00:07:51;;;;;;;0.40;0.40;;;13.60;99.90;;;;;;5031703;28;20218;-77
2022/06/08 00:10:17;;;;;;;0.50;0.50;;;13.70;99.90;;;;;;5031670;28;20665;-77
2022/06/08 00:12:43;;;;;;;0.43;0.43;;;13.60;99.90;;;;;;5031866;28;20187;-76
2022/06/08 00:15:10;;;;;;;0.40;0.40;;;13.60;99.90;;;;;;5031840;28;20179;-77
2022/06/08 00:17:35;;;;;;;0.40;0.40;;;13.60;99.90;;;;;;5031717;28;20167;-77
2022/06/08 00:20:02;;;;;;;0.40;0.40;;;13.60;99.90;;;;;;5031124;28;20266;-78
2022/06/08 00:22:28;;;;;;;0.50;0.50;;;13.60;99.90;;;;;;5031448;28;20211;-76
2022/06/08 00:24:53;;;;;;;0.50;0.50;;;13.60;99.90;;;;;;5032007;28;20214;-78
2022/06/08 00:27:19;;;;;;;0.40;0.40;;;13.60;99.90;;;;;;5031917;28;20171;-76
2022/06/08 00:29:45;;;;;;;0.50;0.50;;;13.60;99.90;;;;;;5031194;28;20580;-76
2022/06/08 00:32:11;;;;;;;0.40;0.40;;;13.60;99.90;;;;;;5031564;28;20199;-77
2022/06/08 00:34:36;;;;;;;0.40;0.40;;;13.60;99.90;;;;;;5031436;28;20192;-78
2022/06/08 00:37:02;;;;;;;0.50;0.50;;;13.60;99.90;;;;;;5031339;28;20259;-78
2022/06/08 00:39:27;;;;;;;0.50;0.50;;;13.70;99.90;;;;;;5030902;28;20684;-78
2022/06/08 00:41:56;;;;;;;0.40;0.40;;;13.70;99.90;;;;;;5030558;28;20715;-77
2022/06/08 00:44:33;;;;;;;0.37;0.37;;;13.70;99.90;;;;;;5031308;28;20172;-77
2022/06/08 00:47:02;;;;;;;0.50;0.50;;;13.70;99.90;;;;;;5011335;28;20319;-76
2022/06/08 00:49:29;;;;;;;0.57;0.57;;;13.70;99.90;;;;;;5016295;28;20176;-77
2022/06/08 00:51:57;;;;;;;0.40;0.40;;;13.70;99.90;;;;;;5031118;28;20191;-76
2022/06/08 00:54:30;;;;;;;0.47;0.47;;;13.80;99.90;;;;;;5031158;28;20726;-77
2022/06/08 00:57:05;;;;;;;0.40;0.40;;;13.70;99.90;;;;;;5031286;28;20180;-77
2022/06/08 00:59:30;;;;;;;0.47;0.47;;;13.70;99.90;;;;;;5030610;28;20207;-77
2022/06/08 01:01:56;;;;;;;0.40;0.40;;;13.70;99.90;;;;;;5030913;28;20279;-77
2022/06/08 01:04:21;;;;;;;0.47;0.47;;;13.60;99.90;;;;;;5031451;28;20183;-76
2022/06/08 01:06:54;;;;;;;0.43;0.43;;;13.70;99.90;;;;;;5031734;28;20183;-76
2022/06/08 01:09:29;;;;;;;0.40;0.40;;;13.70;99.90;;;;;;5034603;28;20191;-76
2022/06/08 01:11:58;;;;;;;0.30;0.30;;;13.70;99.90;;;;;;5026872;28;20199;-75
2022/06/08 01:14:25;;;;;;;0.40;0.40;;;13.70;99.90;;;;;;5034987;28;20168;-76
2022/06/08 01:16:57;;;;;;;0.40;0.40;;;13.70;99.90;;;;;;5035149;28;20172;-76
2022/06/08 01:19:22;;;;;;;0.40;0.40;;;13.70;99.90;;;;;;5034440;28;20634;-76
2022/06/08 01:21:56;;;;;;;0.40;0.40;;;13.70;99.90;;;;;;5034920;28;20219;-78
2022/06/08 01:24:23;;;;;;;0.40;0.40;;;13.70;99.90;;;;;;5034724;28;20262;-79
2022/06/08 01:27:19;;;;;;;0.40;0.40;;;13.70;99.90;;;;;;5034787;28;20224;-76
2022/06/08 01:29:53;;;;;;;0.50;0.50;;;13.70;99.90;;;;;;5032779;28;20588;-78
2022/06/08 01:32:37;;;;;;;0.40;0.40;;;13.70;99.90;;;;;;5034740;28;20191;-77
2022/06/08 01:35:02;;;;;;;0.40;0.40;;;13.70;99.90;;;;;;5034669;28;20191;-76
2022/06/08 01:37:38;;;;;;;0.40;0.40;;;13.70;99.90;;;;;;5034595;28;20186;-77
2022/06/08 01:40:09;;;;;;;0.40;0.40;;;13.70;99.90;;;;;;5034052;28;20770;-77
2022/06/08 01:42:53;;;;;;;0.40;0.40;;;13.70;99.90;;;;;;5035053;28;20195;-77
2022/06/08 01:45:40;;;;;;;0.40;0.40;;;13.70;99.90;;;;;;5034688;28;20182;-76
2022/06/08 01:48:21;;;;;;;0.40;0.40;;;13.70;99.90;;;;;;5034672;28;20191;-78
2022/06/08 01:51:08;;;;;;;0.50;0.50;;;13.70;99.90;;;;;;5033717;28;20183;-76
2022/06/08 01:53:51;;;;;;;0.40;0.40;;;13.70;99.90;;;;;;5034248;28;20187;-76
2022/06/08 01:56:30;;;;;;;0.40;0.40;;;13.70;99.90;;;;;;5034350;28;20183;-78
2022/06/08 01:59:17;;;;;;;0.50;0.50;;;13.60;99.90;;;;;;5033772;28;20203;-78
2022/06/08 02:01:53;;;;;;;0.40;0.40;;;13.60;99.90;;;;;;5034155;28;20202;-78
2022/06/08 02:04:50;;;;;;;0.40;0.40;;;13.60;99.90;;;;;;5033982;28;20175;-78
2022/06/08 02:07:32;;;;;;;0.40;0.40;;;13.50;99.90;;;;;;5032710;28;20252;-77
2022/06/08 02:10:14;;;;;;;0.40;0.40;;;13.50;99.90;;;;;;5033667;28;20184;-76
2022/06/08 02:12:49;;;;;;;0.40;0.40;;;13.50;99.90;;;;;;5033955;28;20592;-77
2022/06/08 02:15:26;;;;;;;0.40;0.40;;;13.40;99.90;;;;;;5034292;28;20258;-76
2022/06/08 02:17:54;;;;;;;0.50;0.50;;;13.40;99.90;;;;;;5033588;28;20623;-77
2022/06/08 02:20:30;;;;;;;0.37;0.37;;;13.40;99.90;;;;;;5033282;28;20607;-77
2022/06/08 02:23:02;;;;;;;0.40;0.40;;;13.40;99.90;;;;;;5033818;28;20261;-77
2022/06/08 02:25:40;;;;;;;0.60;0.60;;;13.40;99.90;;;;;;5033989;28;20176;-77
2022/06/08 02:28:16;;;;;;;0.50;0.50;;;13.40;99.90;;;;;;5033991;28;20179;-77
2022/06/08 02:30:48;;;;;;;0.40;0.40;;;13.30;99.90;;;;;;5033171;28;20671;-76
2022/06/08 02:36:20;;;;;;;0.40;0.40;;;13.30;99.90;;;;;;5033819;28;20242;-76
2022/06/08 02:39:05;;;;;;;0.40;0.40;;;13.20;99.90;;;;;;5033745;28;20216;-78
2022/06/08 02:41:33;;;;;;;0.47;0.47;;;13.20;99.90;;;;;;5033535;28;20227;-76
2022/06/08 02:44:04;;;;;;;0.40;0.40;;;13.10;99.90;;;;;;5033503;28;20659;-76
2022/06/08 02:46:47;;;;;;;0.50;0.50;;;13.10;99.90;;;;;;5033516;28;20218;-75
2022/06/08 02:49:14;;;;;;;0.37;0.37;;;13.00;99.90;;;;;;5032853;28;20180;-76
2022/06/08 02:51:48;;;;;;;0.40;0.40;;;13.00;99.90;;;;;;5033210;28;20274;-77
2022/06/08 02:54:19;;;;;;;0.40;0.40;;;12.90;99.90;;;;;;5033186;28;20229;-79
2022/06/08 02:56:57;;;;;;;0.40;0.40;;;12.90;99.90;;;;;;5033520;28;20259;-78
2022/06/08 02:59:45;;;;;;;0.40;0.40;;;12.90;99.90;;;;;;5032892;28;20223;-76
2022/06/08 03:02:21;;;;;;;0.40;0.40;;;12.80;99.90;;;;;;5033141;28;20191;-77
2022/06/08 03:05:20;;;;;;;0.50;0.50;;;12.70;99.90;;;;;;5033173;28;20242;-76
2022/06/08 03:08:10;;;;;;;0.40;0.40;;;12.70;99.90;;;;;;5033040;28;20187;-76
2022/06/08 03:10:40;;;;;;;0.50;0.50;;;12.60;99.90;;;;;;5032596;28;20279;-78
2022/06/08 03:13:38;;;;;;;0.50;0.50;;;12.50;99.90;;;;;;5032821;28;20275;-77
2022/06/08 03:16:06;;;;;;;0.40;0.40;;;12.50;99.90;;;;;;5032967;28;20175;-77
2022/06/08 03:18:32;;;;;;;0.40;0.40;;;12.40;99.90;;;;;;5032618;28;20183;-76
2022/06/08 03:20:59;;;;;;;0.50;0.50;;;12.50;99.90;;;;;;5032216;28;20175;-77
2022/06/08 03:23:25;;;;;;;0.40;0.40;;;12.50;99.90;;;;;;5032413;28;20553;-77
2022/06/08 03:25:51;;;;;;;0.50;0.50;;;12.50;99.90;;;;;;5032878;28;20172;-76
2022/06/08 03:28:17;;;;;;;0.40;0.40;;;12.50;99.90;;;;;;5032716;28;20192;-77
2022/06/08 03:30:44;;;;;;;0.60;0.60;;;12.50;99.90;;;;;;5031323;28;20172;-76
2022/06/08 03:33:11;;;;;;;0.50;0.50;;;12.50;99.90;;;;;;5032344;28;20246;-77
2022/06/08 03:35:38;;;;;;;0.50;0.50;;;12.50;99.90;;;;;;5032451;28;20179;-77
2022/06/08 03:38:05;;;;;;;0.50;0.50;;;12.50;99.90;;;;;;5032237;28;20188;-76
2022/06/08 03:40:30;;;;;;;0.43;0.43;;;12.50;99.90;;;;;;5031902;28;20216;-77
2022/06/08 03:42:56;;;;;;;0.50;0.50;;;12.50;99.90;;;;;;5032341;28;20654;-77
2022/06/08 03:45:22;;;;;;;0.60;0.60;;;12.60;99.90;;;;;;5032323;28;20179;-77
2022/06/08 03:47:51;;;;;;;0.40;0.40;;;12.50;99.90;;;;;;5032042;28;20211;-76
2022/06/08 03:50:20;;;;;;;0.40;0.40;;;12.50;99.90;;;;;;5031761;28;20188;-77
2022/06/08 03:52:54;;;;;;;0.50;0.50;;;12.60;99.90;;;;;;5031771;28;20202;-78
2022/06/08 03:55:21;;;;;;;0.50;0.50;;;12.60;99.90;;;;;;5032281;28;20183;-77
2022/06/08 03:57:48;;;;;;;0.40;0.40;;;12.60;99.90;;;;;;5031762;28;20180;-78
2022/06/08 04:00:15;;;;;;;0.40;0.40;;;12.70;99.90;;;;;;5031552;28;20697;-77
2022/06/08 04:02:41;;;;;;;0.50;0.50;;;12.80;99.90;;;;;;5031753;28;20257;-77
2022/06/08 04:05:09;;;;;;;0.40;0.40;;;12.80;99.90;;;;;;5031811;28;20221;-77
2022/06/08 04:07:34;;;;;;;0.40;0.40;;;12.90;99.90;;;;;;5031766;28;20310;-76
2022/06/08 04:10:00;;;;;;;0.40;0.40;;;13.00;99.90;;;;;;5031520;28;20259;-77
2022/06/08 04:12:26;;;;;;;0.40;0.40;;;13.10;99.90;;;;;;5031918;28;20192;-77
2022/06/08 04:14:52;;;;;;;0.50;0.50;;;13.30;99.90;;;;;;5031762;28;20174;-77
2022/06/08 04:17:18;;;;;;;0.40;0.40;;;13.50;99.90;;;;;;5031879;28;20176;-77
2022/06/08 04:19:44;;;;;;;0.50;0.50;;;13.60;99.90;;;;;;5030930;28;20215;-78
2022/06/08 04:22:10;;;;;;;0.40;0.40;;;13.60;99.90;;;;;;5031774;28;20692;-77
2022/06/08 04:24:36;;;;;;;0.50;0.50;;;13.70;99.90;;;;;;5031459;28;20172;-77
2022/06/08 04:27:02;;;;;;;0.40;0.40;;;13.70;99.90;;;;;;5031776;28;20171;-76
2022/06/08 04:29:27;;;;;;;0.40;0.40;;;13.80;99.90;;;;;;5031270;28;20223;-77
2022/06/08 04:31:53;;;;;;;0.40;0.40;;;13.80;99.90;;;;;;5031653;28;20591;-78
2022/06/08 04:34:19;;;;;;;0.30;0.30;;;13.90;99.90;;;;;;5031455;28;20190;-78
2022/06/08 04:36:45;;;;;;;0.50;0.50;;;14.00;99.90;;;;;;5032076;28;20258;-77
2022/06/08 04:39:12;;;;;;;0.40;0.40;;;14.10;99.90;;;;;;5031122;28;20211;-78
2022/06/08 04:41:38;;;;;;;0.40;0.40;;;14.30;99.90;;;;;;5034518;28;20195;-78
2022/06/08 04:44:04;;;;;;;0.47;0.47;;;14.40;99.90;;;;;;5037945;28;20333;-77
2022/06/08 04:46:30;;;;;;;0.40;0.40;;;14.50;99.90;;;;;;5038130;28;20168;-78
2022/06/08 04:48:55;;;;;;;0.33;0.33;;;14.30;99.90;;;;;;5037413;28;20565;-77
2022/06/08 04:51:21;;;;;;;0.40;0.40;;;14.40;99.90;;;;;;5038077;28;20191;-77
2022/06/08 04:53:47;;;;;;;0.50;0.50;;;14.30;99.90;;;;;;5038001;28;20186;-76
2022/06/08 04:56:14;;;;;;;0.30;0.30;;;14.30;99.90;;;;;;5038414;28;20180;-77
2022/06/08 04:58:40;;;;;;;0.40;0.40;;;14.20;99.90;;;;;;5038057;28;20194;-76
2022/06/08 05:01:05;;;;;;;0.40;0.40;;;14.10;99.90;;;;;;5037760;28;20176;-76
2022/06/08 05:03:31;;;;;;;0.40;0.40;;;14.10;99.90;;;;;;5038539;28;20640;-77
2022/06/08 05:05:59;;;;;;;0.40;0.40;;;14.10;99.90;;;;;;5038702;28;20187;-76
2022/06/08 05:08:25;;;;;;;0.40;0.40;;;14.10;99.90;;;;;;5038035;28;20241;-75
2022/06/08 05:10:52;;;;;;;0.40;0.40;;;14.20;99.90;;;;;;5037093;28;20696;-73
2022/06/08 05:13:19;;;;;;;0.40;0.40;;;14.20;99.90;;;;;;5037539;28;20226;-75
2022/06/08 05:15:46;;;;;;;0.47;0.47;;;14.40;99.90;;;;;;5037642;28;20183;-74
2022/06/08 05:18:15;;;;;;;0.40;0.40;;;14.40;99.90;;;;;;5037171;28;20179;-74
2022/06/08 05:20:42;;;;;;;0.40;0.40;;;14.50;99.90;;;;;;5034997;28;20273;-79
2022/06/08 05:23:12;;;;;;;0.40;0.40;;;14.50;99.90;;;;;;5037360;28;20227;-77
2022/06/08 05:25:40;;;;;;;0.40;0.40;;;14.50;99.90;;;;;;5038246;28;20176;-78
2022/06/08 05:28:07;;;;;;;0.40;0.40;;;14.60;99.90;;;;;;5034856;28;20184;-75
2022/06/08 05:30:33;;;;;;;0.47;0.47;;;14.70;99.90;;;;;;5035530;28;20768;-75
2022/06/08 05:32:59;;;;;;;0.40;0.40;;;14.90;99.90;;;;;;5036394;28;20713;-71
2022/06/08 05:35:26;;;;;;;0.30;0.30;;;15.10;99.90;;;;;;5037653;28;20233;-72
2022/06/08 05:37:52;;;;;;;0.30;0.30;;;15.40;99.90;;;;;;5037570;28;20701;-72
2022/06/08 05:40:20;;;;;;;0.40;0.40;;;15.50;99.90;;;;;;5036804;28;20238;-73
2022/06/08 05:42:46;;;;;;;0.40;0.40;;;15.50;99.90;;;;;;5036968;28;20198;-73
2022/06/08 05:45:18;;;;;;;0.37;0.37;;;15.60;99.90;;;;;;5037015;28;20179;-72
2022/06/08 05:47:44;;;;;;;0.40;0.40;;;15.80;99.90;;;;;;5037264;28;20184;-72
2022/06/08 05:50:10;;;;;;;0.40;0.40;;;15.90;99.90;;;;;;5036804;28;20175;-72
2022/06/08 05:52:35;;;;;;;0.40;0.40;;;15.90;14.60;;;;;;5036154;28;20203;-75
2022/06/08 05:55:01;;;;;;;0.40;0.40;;;16.00;91.00;;;;;;5033271;28;20208;-75
2022/06/08 05:57:26;;;;;;;0.40;0.40;;;16.00;48.60;;;;;;5032074;28;20262;-74
2022/06/08 05:59:52;;;;;;;0.40;0.40;;;15.80;45.40;;;;;;5033526;28;20240;-74
2022/06/08 06:02:17;;;;;;;0.47;0.47;;;15.80;98.20;;;;;;5033933;28;20196;-74
2022/06/08 06:04:44;;;;;;;0.40;0.40;;;15.80;99.90;;;;;;5034188;28;20176;-75
2022/06/08 06:07:11;;;;;;;0.40;0.40;;;15.70;99.90;;;;;;5033850;28;20644;-74
2022/06/08 06:09:38;;;;;;;0.40;0.40;;;15.70;90.00;;;;;;5033489;28;20183;-74
2022/06/08 06:12:04;;;;;;;0.40;0.40;;;15.80;94.80;;;;;;5034315;28;20195;-75
2022/06/08 06:14:29;;;;;;;0.50;0.50;;;15.80;99.90;;;;;;5033502;28;20191;-73
2022/06/08 06:16:55;;;;;;;0.40;0.40;;;15.90;99.90;;;;;;5031784;28;20249;-74
2022/06/08 06:19:20;;;;;;;0.40;0.40;;;16.00;64.40;;;;;;5031026;28;20757;-74
2022/06/08 06:21:46;;;;;;;0.50;0.50;;;16.00;70.30;;;;;;5033036;28;20215;-73
2022/06/08 06:24:12;;;;;;;0.40;0.40;;;16.00;67.90;;;;;;5029709;28;20184;-73
2022/06/08 06:26:37;;;;;;;0.40;0.40;;;16.10;99.90;;;;;;5032341;28;20195;-74
2022/06/08 06:29:03;;;;;;;0.47;0.47;;;16.20;23.80;;;;;;5036895;28;20364;-75
2022/06/08 06:31:39;;;;;;;0.40;0.40;;;16.30;3.30;;;;;;5034696;28;20546;-73
2022/06/08 06:34:05;;;;;;;0.47;0.47;;;16.40;1.00;;;;;;5035206;28;20191;-75
2022/06/08 06:36:30;;;;;;;0.40;0.40;;;16.50;14.20;;;;;;5032734;28;20195;-74
2022/06/08 06:38:56;;;;;;;0.30;0.30;;;16.50;1.00;;;;;;5032241;28;20209;-74
2022/06/08 06:41:22;;;;;;;0.30;0.30;;;16.60;1.00;;;;;;5032057;28;20230;-74
2022/06/08 06:43:48;;;;;;;0.40;0.40;;;16.70;1.00;;;;;;5035862;28;20201;-75
2022/06/08 06:46:15;;;;;;;0.40;0.40;;;16.70;1.00;;;;;;5033187;28;20180;-74
2022/06/08 06:48:41;;;;;;;0.37;0.37;;;16.90;1.00;;;;;;5032721;28;20179;-75
2022/06/08 06:51:07;;;;;;;0.40;0.40;;;16.90;1.00;;;;;;5034785;28;20812;-74
2022/06/08 06:53:33;;;;;;;0.40;0.40;;;16.90;1.00;;;;;;5036938;28;20179;-75
2022/06/08 06:55:58;;;;;;;0.40;0.40;;;16.80;1.00;;;;;;5032327;28;20187;-76
2022/06/08 06:58:24;;;;;;;0.50;0.50;;;16.90;1.00;;;;;;5036108;28;20544;-75
2022/06/08 07:00:50;;;;;;;0.40;0.40;;;17.10;1.00;;;;;;5031967;28;20207;-75
2022/06/08 07:03:16;;;;;;;0.40;0.40;;;17.10;1.00;;;;;;5033467;28;20180;-74
2022/06/08 07:05:42;;;;;;;0.30;0.30;;;17.20;1.00;;;;;;5023050;28;20187;-73
2022/06/08 07:08:08;;;;;;;0.30;0.30;;;17.30;1.00;;;;;;5032594;28;20259;-75
2022/06/08 07:10:34;;;;;;;0.40;0.40;;;17.40;99.90;;;;;;5027697;28;20186;-73
2022/06/08 07:13:00;;;;;;;0.40;0.40;;;17.50;99.90;;;;;;5032125;28;20330;-73
2022/06/08 07:15:26;;;;;;;0.30;0.30;;;17.60;1.00;;;;;;5034106;28;20278;-72
2022/06/08 07:17:53;;;;;;;0.40;0.40;;;17.60;1.00;;;;;;5032375;28;20590;-73
2022/06/08 07:20:19;;;;;;;0.30;0.30;;;17.60;1.00;;;;;;5031833;28;20239;-71
2022/06/08 07:22:46;;;;;;;0.40;0.40;;;17.70;99.90;;;;;;5032216;28;20696;-72
2022/06/08 07:25:13;;;;;;;0.40;0.40;;;17.70;1.00;;;;;;5032707;28;20184;-72
2022/06/08 07:27:39;;;;;;;0.40;0.40;;;17.70;99.90;;;;;;5031821;28;20187;-73
2022/06/08 07:30:06;;;;;;;0.30;0.30;;;17.70;1.00;;;;;;5031707;28;20180;-73
2022/06/08 07:32:32;;;;;;;0.40;0.40;;;17.70;1.00;;;;;;5031952;28;20210;-72
2022/06/08 07:34:57;;;;;;;0.30;0.30;;;17.80;99.90;;;;;;5036041;28;20289;-72
2022/06/08 07:37:24;;;;;;;0.40;0.40;;;17.90;94.80;;;;;;5031851;28;20187;-73
2022/06/08 07:39:50;;;;;;;0.40;0.40;;;18.00;99.90;;;;;;5034650;28;20254;-74
2022/06/08 07:42:17;;;;;;;0.40;0.40;;;18.20;1.00;;;;;;5033805;28;20215;-74
2022/06/08 07:44:43;;;;;;;0.40;0.40;;;18.50;1.00;;;;;;5030362;28;20555;-72
2022/06/08 07:47:08;;;;;;;0.30;0.30;;;18.60;1.00;;;;;;5031769;28;20176;-76
2022/06/08 07:49:37;;;;;;;0.30;0.30;;;18.50;1.00;;;;;;5031016;28;20180;-76
2022/06/08 07:52:15;;;;;;;0.30;0.30;;;18.30;99.90;;;;;;5029070;28;20199;-76
2022/06/08 07:54:43;;;;;;;0.30;0.30;;;18.30;99.90;;;;;;5031765;28;20167;-76
2022/06/08 07:57:14;;;;;;;0.30;0.30;;;18.30;1.00;;;;;;5031281;28;20179;-75
2022/06/08 07:59:41;;;;;;;0.40;0.40;;;18.40;1.00;;;;;;5029050;28;20302;-75
2022/06/08 08:02:07;;;;;;;0.30;0.30;;;18.40;51.40;;;;;;5028907;28;20279;-75
2022/06/08 08:04:34;;;;;;;0.40;0.40;;;18.40;19.90;;;;;;5025810;28;20552;-75
2022/06/08 08:07:00;;;;;;;0.40;0.40;;;18.40;1.00;;;;;;5031348;28;20187;-76
2022/06/08 08:09:25;;;;;;;0.30;0.30;;;18.40;45.90;;;;;;5031109;28;20180;-74
2022/06/08 08:11:53;;;;;;;0.40;0.40;;;18.40;99.90;;;;;;5031665;28;20192;-74
2022/06/08 08:14:21;;;;;;;0.30;0.30;;;18.60;99.90;;;;;;5031519;28;20207;-74
2022/06/08 08:16:47;;;;;;;0.30;0.30;;;19.20;1.00;;;;;;5030956;28;20179;-74
2022/06/08 08:19:19;;;;;;;0.40;0.40;;;19.60;99.90;;;;;;5030954;28;20203;-74
2022/06/08 08:21:46;;;;;;;0.40;0.40;;;20.00;1.00;;;;;;5031269;28;20706;-75
2022/06/08 08:24:12;;;;;;;0.40;0.40;;;20.10;1.00;;;;;;5031416;28;20176;-74
2022/06/08 08:26:37;;;;;;;0.40;0.40;;;20.10;1.00;;;;;;5031125;28;20703;-75
2022/06/08 08:29:04;;;;;;;0.30;0.30;;;20.00;1.00;;;;;;5030858;28;20172;-74
2022/06/08 08:31:31;;;;;;;0.30;0.30;;;20.20;15.50;;;;;;5030980;28;20740;-75
2022/06/08 08:33:57;;;;;;;0.40;0.40;;;20.20;1.00;;;;;;5031012;28;20200;-74
2022/06/08 08:36:22;;;;;;;0.40;0.40;;;20.10;1.00;;;;;;5030962;28;20548;-75
2022/06/08 08:38:48;;;;;;;0.30;0.30;;;20.10;1.00;;;;;;5030980;28;20172;-76
2022/06/08 08:44:29;;;;;;;0.30;0.30;;;20.60;99.90;;;;;;5031171;28;20209;-74
2022/06/08 08:47:14;;;;;;;0.40;0.40;;;21.50;1.00;;;;;;5022862;28;20580;-75
2022/06/08 08:49:48;;;;;;;0.40;0.40;;;22.00;1.00;;;;;;5030260;28;20192;-75
2022/06/08 08:52:45;;;;;;;0.40;0.40;;;22.10;1.00;;;;;;5030806;28;20283;-76
2022/06/08 08:55:23;;;;;;;0.40;0.40;;;22.20;1.00;;;;;;5030785;28;20576;-74
2022/06/08 08:57:57;;;;;;;0.40;0.40;;;22.50;1.00;;;;;;5031332;28;20190;-71
2022/06/08 09:00:40;;;;;;;0.30;0.30;;;22.70;1.00;;;;;;5030519;28;20238;-73
2022/06/08 09:03:20;;;;;;;0.50;0.50;;;23.00;1.00;;;;;;5030943;28;20203;-73
2022/06/08 09:05:48;;;;;;;0.37;0.37;;;23.40;1.00;;;;;;5031064;28;20183;-72
2022/06/08 09:08:16;;;;;;;0.40;0.40;;;23.90;1.00;;;;;;5031327;28;20190;-75
2022/06/08 09:10:42;;;;;;;0.37;0.37;;;23.90;1.00;;;;;;5030711;28;20183;-73
2022/06/08 09:13:16;;;;;;;0.40;0.40;;;23.70;1.00;;;;;;5028984;28;20242;-73
2022/06/08 09:15:52;;;;;;;0.40;0.40;;;23.40;1.00;;;;;;5028911;28;20609;-74
2022/06/08 09:18:37;;;;;;;0.40;0.40;;;23.40;1.00;;;;;;5030817;28;20258;-73
2022/06/08 09:21:21;;;;;;;0.50;0.50;;;23.50;1.00;;;;;;5025401;28;20527;-75
2022/06/08 09:23:50;;;;;;;0.40;0.40;;;23.50;1.00;;;;;;5030057;28;20168;-74
2022/06/08 09:26:28;;;;;;;0.40;0.40;;;23.60;1.00;;;;;;5030988;28;20180;-75
2022/06/08 09:29:20;;;;;;;0.40;0.40;;;23.80;1.00;;;;;;5032513;28;20261;-74
2022/06/08 09:31:46;;;;;;;0.40;0.40;;;23.90;1.00;;;;;;5034405;28;20204;-75
2022/06/08 09:34:19;;;;;;;0.43;0.43;;;23.90;1.00;;;;;;5034300;28;20194;-75
2022/06/08 09:36:50;;;;;;;0.50;0.50;;;24.00;1.00;;;;;;5034592;28;20637;-75
2022/06/08 09:39:19;;;;;;;0.43;0.43;;;24.20;1.00;;;;;;5034149;28;20290;-76
2022/06/08 09:41:50;;;;;;;0.50;0.50;;;24.30;1.00;;;;;;5035210;28;20223;-74
2022/06/08 09:44:22;;;;;;;0.33;0.33;;;24.60;1.00;;;;;;5034527;28;20640;-76
2022/06/08 09:52:38;;;;;;;0.40;0.40;;;24.40;1.00;;;;;;5034418;28;20742;-76
2022/06/08 09:55:53;;;;;;;0.40;0.40;;;24.30;1.00;;;;;;5034096;28;20183;-75
2022/06/08 09:58:52;;;;;;;0.30;0.30;;;24.40;1.00;;;;;;5021172;28;20187;-74
2022/06/08 10:01:36;;;;;;;0.40;0.40;;;24.70;1.00;;;;;;5033904;28;20232;-76
2022/06/08 10:04:12;;;;;;;0.50;0.50;;;24.50;1.00;;;;;;5034142;28;20168;-76
2022/06/08 10:06:43;;;;;;;0.40;0.40;;;24.30;1.00;;;;;;5034002;28;20175;-74
2022/06/08 10:09:31;;;;;;;0.50;0.50;;;24.00;1.00;;;;;;5033438;28;20187;-74
2022/06/08 10:12:22;;;;;;;0.40;0.40;;;23.40;1.00;;;;;;5032913;28;20206;-74
2022/06/08 10:15:01;;;;;;;0.40;0.40;;;23.50;1.00;;;;;;5034035;28;20223;-74
2022/06/08 10:17:40;;;;;;;0.30;0.30;;;24.00;1.00;;;;;;5033781;28;20715;-74
2022/06/08 10:20:11;;;;;;;0.40;0.40;;;24.30;1.00;;;;;;5032707;28;20215;-72
2022/06/08 10:22:43;;;;;;;0.30;0.30;;;24.30;1.00;;;;;;5028661;28;20215;-74
2022/06/08 10:25:29;;;;;;;0.40;0.40;;;24.10;1.00;;;;;;5032787;28;20207;-74
2022/06/08 10:27:59;;;;;;;0.30;0.30;;;24.50;1.00;;;;;;5036012;28;20192;-75
2022/06/08 10:30:31;;;;;;;0.30;0.30;;;24.30;1.00;;;;;;5034351;28;20196;-72
2022/06/08 10:33:10;;;;;;;0.37;0.37;;;24.20;1.00;;;;;;5025568;28;20195;-73
2022/06/08 10:35:42;;;;;;;0.47;0.47;;;24.50;1.00;;;;;;5030145;28;20555;-73
2022/06/08 10:38:19;;;;;;;0.40;0.40;;;25.00;1.00;;;;;;5031379;28;20191;-72
2022/06/08 10:40:53;;;;;;;0.37;0.37;;;25.20;1.00;;;;;;5023445;28;20227;-73
2022/06/08 10:43:27;;;;;;;0.23;0.23;;;25.20;1.00;;;;;;5027855;28;20727;-74
2022/06/08 10:46:01;;;;;;;0.40;0.40;;;25.60;1.00;;;;;;5029203;28;20207;-72
2022/06/08 10:48:48;;;;;;;0.50;0.50;;;25.90;1.00;;;;;;5031695;28;20184;-73
2022/06/08 10:51:14;;;;;;;0.30;0.30;;;26.00;1.00;;;;;;5022341;28;20196;-74
2022/06/08 10:56:26;;;;;;;0.40;0.40;;;26.10;1.00;;;;;;5028659;28;20190;-72
2022/06/08 10:59:03;;;;;;;0.40;0.40;;;26.40;1.00;;;;;;5032755;28;20191;-73
2022/06/08 11:01:48;;;;;;;0.40;0.40;;;27.00;1.00;;;;;;5027801;28;20669;-74
2022/06/08 11:04:31;;;;;;;0.47;0.47;;;27.10;1.00;;;;;;5030591;28;20183;-73
2022/06/08 11:07:05;;;;;;;0.40;0.40;;;26.80;1.00;;;;;;5030797;28;20213;-72
2022/06/08 11:09:33;;;;;;;0.30;0.30;;;26.80;1.00;;;;;;5040287;28;20194;-73
2022/06/08 11:12:05;;;;;;;0.50;0.50;;;25.80;1.00;;;;;;5036126;28;20219;-74
2022/06/08 11:14:48;;;;;;;0.50;0.50;;;26.00;1.00;;;;;;5029975;28;20762;-72
2022/06/08 11:17:25;;;;;;;0.43;0.43;;;26.10;1.00;;;;;;5029865;28;20717;-75
2022/06/08 11:19:56;;;;;;;0.40;0.40;;;26.20;1.00;;;;;;5032847;28;20207;-71
2022/06/08 11:22:31;;;;;;;0.37;0.37;;;26.30;1.00;;;;;;5033997;28;20199;-73
2022/06/08 11:25:01;;;;;;;0.30;0.30;;;26.20;1.00;;;;;;5039357;28;20232;-73
2022/06/08 11:27:32;;;;;;;0.40;0.40;;;26.30;1.00;;;;;;5031400;28;20180;-73
2022/06/08 11:30:26;;;;;;;0.50;0.50;;;26.30;1.00;;;;;;5030059;28;20175;-73
2022/06/08 11:32:51;;;;;;;0.40;0.40;;;25.70;1.00;;;;;;5030217;28;20203;-75
2022/06/08 11:35:29;;;;;;;0.40;0.40;;;25.50;1.00;;;;;;5029702;28;20261;-71
2022/06/08 11:38:02;;;;;;;0.30;0.30;;;25.50;1.00;;;;;;5030352;28;20202;-74
2022/06/08 11:40:32;;;;;;;0.50;0.50;;;25.70;1.00;;;;;;5029275;28;20259;-74
2022/06/08 11:43:25;;;;;;;0.30;0.30;;;25.80;1.00;;;;;;5030184;28;20671;-74
2022/06/08 11:45:57;;;;;;;0.40;0.40;;;25.50;1.00;;;;;;5035088;28;20207;-74
2022/06/08 11:48:29;;;;;;;0.40;0.40;;;25.20;1.00;;;;;;5039792;28;20179;-74
2022/06/08 11:51:01;;;;;;;0.40;0.40;;;24.90;1.00;;;;;;5028304;28;20222;-73
2022/06/08 11:53:31;;;;;;;0.30;0.30;;;24.70;1.00;;;;;;5029167;28;20206;-74
2022/06/08 11:56:15;;;;;;;0.40;0.40;;;24.90;1.00;;;;;;5050432;28;20213;-74
2022/06/08 11:59:07;;;;;;;0.40;0.40;;;25.40;1.00;;;;;;5049461;28;20661;-74
2022/06/08 12:01:49;;;;;;;0.33;0.33;;;25.70;1.00;;;;;;5042663;28;20211;-73
2022/06/08 12:04:24;;;;;;;0.30;0.30;;;25.50;1.00;;;;;;5034408;28;20172;-73
2022/06/08 12:06:50;;;;;;;0.40;0.40;;;25.10;1.00;;;;;;5037019;28;20178;-72
2022/06/08 12:09:26;;;;;;;0.40;0.40;;;24.40;1.00;;;;;;5031555;28;20706;-72
2022/06/08 12:11:54;;;;;;;0.47;0.47;;;24.50;1.00;;;;;;5029422;28;20223;-72
2022/06/08 12:14:34;;;;;;;0.40;0.40;;;24.60;1.00;;;;;;5030685;28;20176;-71
2022/06/08 12:17:05;;;;;;;0.40;0.40;;;24.70;1.00;;;;;;5031176;28;20488;-73
2022/06/08 12:19:44;;;;;;;0.50;0.50;;;24.60;1.00;;;;;;5030338;28;20215;-71
2022/06/08 12:22:18;;;;;;;0.53;0.53;;;25.20;1.00;;;;;;5028727;28;20187;-71
2022/06/08 12:25:02;;;;;;;0.40;0.40;;;25.40;1.00;;;;;;5030826;28;20604;-72
2022/06/08 12:27:28;;;;;;;0.33;0.33;;;25.50;1.00;;;;;;5031179;28;20176;-73
2022/06/08 12:29:57;;;;;;;0.40;0.40;;;25.30;1.00;;;;;;5031062;28;20592;-74
2022/06/08 12:32:48;;;;;;;0.40;0.40;;;25.40;1.00;;;;;;5030588;28;20198;-73
2022/06/08 12:35:34;;;;;;;0.47;0.47;;;25.40;1.00;;;;;;5025106;28;20207;-75
2022/06/08 12:38:14;;;;;;;0.30;0.30;;;25.50;1.00;;;;;;5031361;28;20644;-74
2022/06/08 12:40:41;;;;;;;0.40;0.40;;;25.50;1.00;;;;;;5030826;28;20215;-73
2022/06/08 12:43:06;;;;;;;0.40;0.40;;;25.00;1.00;;;;;;5031305;28;20192;-73
2022/06/08 12:45:35;;;;;;;0.50;0.50;;;24.50;1.00;;;;;;5031311;28;20661;-74
2022/06/08 12:48:22;;;;;;;0.30;0.30;;;24.30;1.00;;;;;;5031230;28;20168;-74
2022/06/08 12:50:49;;;;;;;0.30;0.30;;;24.40;1.00;;;;;;5030939;28;20241;-74
2022/06/08 12:53:16;;;;;;;0.30;0.30;;;24.40;1.00;;;;;;5031608;28;20176;-74
2022/06/08 12:55:42;;;;;;;0.43;0.43;;;24.50;1.00;;;;;;5031262;28;20168;-76
2022/06/08 12:58:08;;;;;;;0.40;0.40;;;24.50;1.00;;;;;;5031425;28;20660;-74
2022/06/08 13:00:36;;;;;;;0.40;0.40;;;24.50;1.00;;;;;;5030552;28;20226;-74
2022/06/08 13:03:18;;;;;;;0.47;0.47;;;24.50;1.00;;;;;;5033793;28;20203;-75
2022/06/08 13:05:44;;;;;;;0.50;0.50;;;24.60;1.00;;;;;;5035273;28;20229;-74
2022/06/08 13:08:17;;;;;;;0.30;0.30;;;24.80;1.00;;;;;;5035274;28;20549;-76
2022/06/08 13:10:44;;;;;;;0.40;0.40;;;24.80;1.00;;;;;;5034655;28;20237;-75
2022/06/08 13:13:16;;;;;;;0.40;0.40;;;24.90;1.00;;;;;;5034979;28;20214;-75
2022/06/08 13:15:44;;;;;;;0.40;0.40;;;24.90;1.00;;;;;;5035373;28;20552;-75
2022/06/08 13:18:17;;;;;;;0.50;0.50;;;24.60;1.00;;;;;;5035066;28;20241;-75
2022/06/08 13:20:43;;;;;;;0.50;0.50;;;24.50;1.00;;;;;;5034493;28;20219;-76
2022/06/08 13:23:09;;;;;;;0.30;0.30;;;24.30;1.00;;;;;;5034757;28;20195;-75
2022/06/08 13:25:36;;;;;;;0.33;0.33;;;24.40;1.00;;;;;;5034697;28;20207;-75